Time,TemperatureF,DewpointF,PressureIn,WindDirection,WindDirectionDegrees,WindSpeedMPH,WindSpeedGustMPH,Humidity,HourlyPrecipIn,Conditions,Clouds,dailyrainin,SoftwareType,DateUTC
2013-03-08 00:02:00,32.2,25.5,30.18,NNE,18,0.9,3.4,76,0.00,,,0.00,WUHU216HW,2013-03-08 05:02:00,
2013-03-08 00:17:00,32.2,25.2,30.18,NE,55,1.2,3.8,75,0.00,,,0.00,WUHU216HW,2013-03-08 05:17:00,
2013-03-08 00:32:00,32.2,25.2,30.19,East,91,1.3,3.8,75,0.00,,,0.00,WUHU216HW,2013-03-08 05:32:00,
2013-03-08 00:47:00,32.0,24.7,30.19,ENE,71,1.6,5.4,74,0.00,,,0.00,WUHU216HW,2013-03-08 05:47:00,
2013-03-08 01:02:00,32.0,24.7,30.19,NNE,24,1.2,4.0,74,0.00,,,0.00,WUHU216HW,2013-03-08 06:02:00,
2013-03-08 01:17:00,32.0,25.0,30.19,NW,325,1.2,3.4,75,0.00,,,0.00,WUHU216HW,2013-03-08 06:17:00,
2013-03-08 01:32:00,32.0,24.7,30.19,NW,312,1.0,3.4,74,0.00,,,0.00,WUHU216HW,2013-03-08 06:32:00,
2013-03-08 01:47:00,31.9,24.8,30.18,NNE,29,0.6,1.1,75,0.00,,,0.00,WUHU216HW,2013-03-08 06:47:00,
2013-03-08 02:02:00,31.9,24.5,30.17,SE,134,0.7,2.5,74,0.00,,,0.00,WUHU216HW,2013-03-08 07:02:00,
2013-03-08 02:17:00,31.9,24.8,30.16,ESE,111,0.6,1.6,75,0.00,,,0.00,WUHU216HW,2013-03-08 07:17:00,
2013-03-08 02:32:00,31.9,24.8,30.15,North,9,0.9,2.7,75,0.00,,,0.00,WUHU216HW,2013-03-08 07:32:00,
2013-03-08 02:47:00,31.9,24.8,30.15,West,278,0.7,2.0,75,0.00,,,0.00,WUHU216HW,2013-03-08 07:47:00,
2013-03-08 03:02:00,31.9,24.8,30.14,NW,310,0.7,2.0,75,0.00,,,0.00,WUHU216HW,2013-03-08 08:02:00,
2013-03-08 03:17:00,32.0,25.0,30.14,NW,317,0.8,2.9,75,0.00,,,0.00,WUHU216HW,2013-03-08 08:17:00,
2013-03-08 03:32:00,31.9,25.2,30.14,WNW,290,0.6,1.3,76,0.00,,,0.00,WUHU216HW,2013-03-08 08:32:00,
2013-03-08 03:47:00,32.0,25.4,30.14,WNW,300,0.9,2.7,76,0.00,,,0.00,WUHU216HW,2013-03-08 08:47:00,
2013-03-08 04:02:00,31.9,25.8,30.13,WNW,300,0.5,1.1,78,0.00,,,0.00,WUHU216HW,2013-03-08 09:02:00,
2013-03-08 04:17:00,31.7,25.7,30.13,WNW,282,0.7,1.8,78,0.00,,,0.00,WUHU216HW,2013-03-08 09:17:00,
2013-03-08 04:32:00,31.7,25.7,30.14,West,269,0.7,1.8,78,0.00,,,0.00,WUHU216HW,2013-03-08 09:32:00,
2013-03-08 04:47:00,31.7,25.9,30.14,NW,319,0.8,2.2,79,0.00,,,0.00,WUHU216HW,2013-03-08 09:47:00,
2013-03-08 05:02:00,31.7,25.9,30.14,WNW,286,1.4,2.9,79,0.00,,,0.00,WUHU216HW,2013-03-08 10:02:00,
2013-03-08 05:17:00,31.7,25.9,30.15,NW,308,1.0,2.9,79,0.00,,,0.00,WUHU216HW,2013-03-08 10:17:00,
2013-03-08 05:32:00,31.9,25.8,30.15,WNW,295,1.0,1.8,78,0.00,,,0.00,WUHU216HW,2013-03-08 10:32:00,
2013-03-08 05:47:00,32.0,26.0,30.15,NW,313,1.1,4.0,78,0.00,,,0.00,WUHU216HW,2013-03-08 10:47:00,
2013-03-08 06:02:00,32.0,26.0,30.15,WNW,292,1.0,2.5,78,0.00,,,0.00,WUHU216HW,2013-03-08 11:02:00,
2013-03-08 06:17:00,31.9,25.8,30.15,WNW,303,0.8,1.8,78,0.00,,,0.00,WUHU216HW,2013-03-08 11:17:00,
2013-03-08 06:32:00,32.0,26.0,30.14,WNW,302,0.8,1.8,78,0.00,,,0.00,WUHU216HW,2013-03-08 11:32:00,
2013-03-08 06:47:00,32.0,25.7,30.15,NW,309,0.8,2.5,77,0.00,,,0.00,WUHU216HW,2013-03-08 11:47:00,
2013-03-08 07:02:00,32.2,25.5,30.15,WNW,292,1.0,2.0,76,0.00,,,0.00,WUHU216HW,2013-03-08 12:02:00,
2013-03-08 07:17:00,32.4,26.0,30.15,WNW,301,0.7,1.3,77,0.00,,,0.00,WUHU216HW,2013-03-08 12:17:00,
2013-03-08 07:32:00,32.4,26.3,30.15,NW,315,0.9,1.3,78,0.00,,,0.00,WUHU216HW,2013-03-08 12:32:00,
2013-03-08 07:47:00,32.6,26.5,30.15,NNW,347,0.7,1.1,78,0.00,,,0.00,WUHU216HW,2013-03-08 12:47:00,
2013-03-08 08:02:00,32.8,26.6,30.16,NW,315,0.7,1.1,78,0.00,,,0.00,WUHU216HW,2013-03-08 13:02:00,
2013-03-08 08:17:00,32.9,26.8,30.16,NW,313,0.6,1.3,78,0.00,,,0.00,WUHU216HW,2013-03-08 13:17:00,
2013-03-08 08:32:00,33.3,27.1,30.16,North,0,0.0,0.0,78,0.00,,,0.00,WUHU216HW,2013-03-08 13:32:00,
2013-03-08 08:47:00,33.8,27.6,30.16,North,0,0.0,0.0,78,0.00,,,0.00,WUHU216HW,2013-03-08 13:47:00,
2013-03-08 09:02:00,34.9,27.7,30.16,SSW,196,0.6,0.9,75,0.00,,,0.00,WUHU216HW,2013-03-08 14:02:00,
2013-03-08 09:17:00,35.6,27.8,30.17,South,182,0.6,0.9,73,0.00,,,0.00,WUHU216HW,2013-03-08 14:17:00,
2013-03-08 09:32:00,36.5,27.7,30.17,WNW,302,1.3,3.1,70,0.00,,,0.00,WUHU216HW,2013-03-08 14:32:00,
2013-03-08 09:47:00,37.4,27.9,30.17,NNW,327,1.1,3.6,68,0.00,,,0.00,WUHU216HW,2013-03-08 14:47:00,
2013-03-08 10:02:00,37.6,28.0,30.17,SW,228,0.6,1.6,68,0.00,,,0.00,WUHU216HW,2013-03-08 15:02:00,
2013-03-08 10:17:00,38.2,28.2,30.18,ESE,108,0.7,2.5,67,0.00,,,0.00,WUHU216HW,2013-03-08 15:17:00,
2013-03-08 10:32:00,38.5,27.4,30.18,SE,143,0.9,2.5,64,0.00,,,0.00,WUHU216HW,2013-03-08 15:32:00,
2013-03-08 10:47:00,38.9,27.6,30.19,ESE,113,1.0,3.4,64,0.00,,,0.00,WUHU216HW,2013-03-08 15:47:00,
2013-03-08 11:02:00,39.8,27.4,30.19,ENE,72,1.7,5.4,61,0.00,,,0.00,WUHU216HW,2013-03-08 16:02:00,
2013-03-08 11:17:00,40.9,28.1,30.19,ESE,122,1.3,4.7,60,0.00,,,0.00,WUHU216HW,2013-03-08 16:17:00,
2013-03-08 11:32:00,41.6,27.5,30.19,East,95,1.7,3.6,57,0.00,,,0.00,WUHU216HW,2013-03-08 16:32:00,
2013-03-08 11:47:00,41.6,26.6,30.19,NE,48,1.8,5.4,55,0.00,,,0.00,WUHU216HW,2013-03-08 16:47:00,
2013-03-08 12:02:00,42.1,27.0,30.19,North,352,1.3,4.7,55,0.00,,,0.00,WUHU216HW,2013-03-08 17:02:00,
2013-03-08 12:17:00,42.5,27.4,30.18,SSE,161,2.6,7.4,55,0.00,,,0.00,WUHU216HW,2013-03-08 17:17:00,
2013-03-08 12:32:00,43.6,25.7,30.18,SE,133,2.6,6.9,49,0.00,,,0.00,WUHU216HW,2013-03-08 17:32:00,
2013-03-08 12:47:00,44.3,25.7,30.18,North,11,2.6,6.9,48,0.00,,,0.00,WUHU216HW,2013-03-08 17:47:00,
2013-03-08 13:02:00,44.8,25.2,30.18,East,83,3.0,6.0,46,0.00,,,0.00,WUHU216HW,2013-03-08 18:02:00,
2013-03-08 13:17:00,45.7,22.8,30.18,NE,50,3.5,6.3,40,0.00,,,0.00,WUHU216HW,2013-03-08 18:17:00,
2013-03-08 13:32:00,46.4,25.0,30.19,SSE,148,3.1,10.1,43,0.00,,,0.00,WUHU216HW,2013-03-08 18:32:00,
2013-03-08 13:47:00,45.9,25.1,30.19,ENE,71,2.6,6.0,44,0.00,,,0.00,WUHU216HW,2013-03-08 18:47:00,
2013-03-08 14:02:00,45.7,24.4,30.19,NE,52,2.1,4.7,43,0.00,,,0.00,WUHU216HW,2013-03-08 19:02:00,
2013-03-08 14:17:00,45.4,23.5,30.20,NE,51,3.1,10.5,42,0.00,,,0.00,WUHU216HW,2013-03-08 19:17:00,
2013-03-08 14:32:00,45.4,23.0,30.20,East,100,2.6,6.5,41,0.00,,,0.00,WUHU216HW,2013-03-08 19:32:00,
2013-03-08 14:47:00,45.0,23.8,30.20,ENE,77,2.2,8.5,43,0.00,,,0.00,WUHU216HW,2013-03-08 19:47:00,
2013-03-08 15:02:00,45.2,23.3,30.21,ENE,61,2.6,8.1,42,0.00,,,0.00,WUHU216HW,2013-03-08 20:02:00,
2013-03-08 15:17:00,45.2,23.9,30.21,East,96,1.8,3.8,43,0.00,,,0.00,WUHU216HW,2013-03-08 20:17:00,
2013-03-08 15:32:00,45.0,24.3,30.21,ESE,121,1.4,4.0,44,0.00,,,0.00,WUHU216HW,2013-03-08 20:32:00,
2013-03-08 15:47:00,44.6,24.5,30.21,West,274,1.5,4.5,45,0.00,,,0.00,WUHU216HW,2013-03-08 20:47:00,
2013-03-08 16:02:00,44.3,25.2,30.22,WNW,296,1.2,3.6,47,0.00,,,0.00,WUHU216HW,2013-03-08 21:02:00,
2013-03-08 16:17:00,43.7,25.8,30.22,WNW,301,1.1,2.9,49,0.00,,,0.00,WUHU216HW,2013-03-08 21:17:00,
2013-03-08 16:32:00,43.6,24.6,30.23,WNW,297,1.3,3.8,47,0.00,,,0.00,WUHU216HW,2013-03-08 21:32:00,
2013-03-08 16:47:00,43.0,25.8,30.23,WNW,303,1.4,4.0,50,0.00,,,0.00,WUHU216HW,2013-03-08 21:47:00,
2013-03-08 17:02:00,42.7,25.8,30.24,WNW,301,1.0,2.5,51,0.00,,,0.00,WUHU216HW,2013-03-08 22:02:00,
2013-03-08 17:17:00,41.9,25.1,30.24,WNW,296,1.4,3.8,51,0.00,,,0.00,WUHU216HW,2013-03-08 22:17:00,
2013-03-08 17:32:00,41.4,24.6,30.24,WNW,293,1.5,5.4,51,0.00,,,0.00,WUHU216HW,2013-03-08 22:32:00,
2013-03-08 17:47:00,40.7,25.2,30.25,NW,304,1.3,3.1,54,0.00,,,0.00,WUHU216HW,2013-03-08 22:47:00,
2013-03-08 18:03:00,40.0,25.0,30.26,WNW,299,1.3,3.6,55,0.00,,,0.00,WUHU216HW,2013-03-08 23:03:00,
2013-03-08 18:18:00,39.2,25.6,30.26,NW,304,1.2,2.2,58,0.00,,,0.00,WUHU216HW,2013-03-08 23:18:00,
2013-03-08 18:33:00,38.5,25.8,30.26,WNW,300,1.0,1.8,60,0.00,,,0.00,WUHU216HW,2013-03-08 23:33:00,
2013-03-08 18:48:00,37.8,25.9,30.27,WNW,298,1.0,2.5,62,0.00,,,0.00,WUHU216HW,2013-03-08 23:48:00,
2013-03-08 19:03:00,37.1,25.7,30.27,NW,316,0.8,2.5,63,0.00,,,0.00,WUHU216HW,2013-03-09 00:03:00,
2013-03-08 19:18:00,36.4,25.4,30.28,NW,305,0.9,1.8,64,0.00,,,0.00,WUHU216HW,2013-03-09 00:18:00,
2013-03-08 19:33:00,35.8,25.2,30.29,North,352,0.7,1.8,65,0.00,,,0.00,WUHU216HW,2013-03-09 00:33:00,
2013-03-08 19:48:00,35.6,25.4,30.29,NNW,340,0.6,1.1,66,0.00,,,0.00,WUHU216HW,2013-03-09 00:48:00,
2013-03-08 20:03:00,35.5,25.6,30.29,NNW,341,0.7,1.8,67,0.00,,,0.00,WUHU216HW,2013-03-09 01:03:00,
2013-03-08 20:18:00,35.1,25.6,30.29,NNW,341,0.5,2.0,68,0.00,,,0.00,WUHU216HW,2013-03-09 01:18:00,
2013-03-08 20:33:00,34.7,25.6,30.29,NNE,21,0.7,1.8,69,0.00,,,0.00,WUHU216HW,2013-03-09 01:33:00,
2013-03-08 20:48:00,34.4,25.9,30.30,NW,325,0.5,1.6,71,0.00,,,0.00,WUHU216HW,2013-03-09 01:48:00,
2013-03-08 21:03:00,34.0,25.2,30.30,NNW,342,0.5,1.1,70,0.00,,,0.00,WUHU216HW,2013-03-09 02:03:00,
2013-03-08 21:18:00,33.7,25.5,30.30,NW,317,0.8,1.3,72,0.00,,,0.00,WUHU216HW,2013-03-09 02:18:00,
2013-03-08 21:33:00,33.5,24.7,30.31,NW,316,0.5,1.8,70,0.00,,,0.00,WUHU216HW,2013-03-09 02:33:00,
2013-03-08 21:48:00,33.5,25.0,30.31,NNW,346,0.7,3.8,71,0.00,,,0.00,WUHU216HW,2013-03-09 02:48:00,
2013-03-08 22:03:00,33.8,25.4,30.31,NNW,341,0.4,0.9,71,0.00,,,0.00,WUHU216HW,2013-03-09 03:03:00,
2013-03-08 22:18:00,33.7,25.5,30.31,North,355,0.3,0.4,72,0.00,,,0.00,WUHU216HW,2013-03-09 03:18:00,
2013-03-08 22:33:00,33.1,25.0,30.31,NNE,20,0.4,0.7,72,0.00,,,0.00,WUHU216HW,2013-03-09 03:33:00,
2013-03-08 22:48:00,32.4,24.4,30.31,NNE,28,0.3,0.7,72,0.00,,,0.00,WUHU216HW,2013-03-09 03:48:00,
2013-03-08 23:03:00,31.9,24.2,30.30,North,0,0.5,1.1,73,0.00,,,0.00,WUHU216HW,2013-03-09 04:03:00,
2013-03-08 23:18:00,31.9,24.2,30.30,NW,324,0.5,1.6,73,0.00,,,0.00,WUHU216HW,2013-03-09 04:18:00,
2013-03-08 23:33:00,31.3,24.3,30.31,NNW,338,0.6,1.1,75,0.00,,,0.00,WUHU216HW,2013-03-09 04:33:00,
2013-03-08 23:48:00,31.1,24.1,30.31,NW,321,0.3,0.4,75,0.00,,,0.00,WUHU216HW,2013-03-09 04:48:00,